Chinnor, United Kingdom
Current Conditions -  °F | °C
As of 8:50 PM on Monday 24 Nov 2014 (Local Time) from EGUB Reporting Station
Moderate Fog Moderate Fog  
Wind Chill: 28°   Ceiling: Unl
Heat Index: 28°   Visibility: 0.12mi
Dew Point: 28°   Wind: 1mph
Humidity: 100%   Direction: 20°NNE
Pressure: 30.33"   Gusts: NA
Location:  51.7°N, 0.91°W
Report Text: EGUB 242050Z 02001KT 0200 FZFG BKN000 M02/M02 Q1027 RED
Loading
Personal Weather Stations






























Interactive Weather Map New forecast layout! Learn more

10-Day Weather Forecast

Advertisements
Track Severe Weather on mobile